createdAt,value
2022-11-27T00:00:49.768Z,41.01
2022-11-27T00:03:20.067Z,41.35
2022-11-27T00:05:56.978Z,41.39
2022-11-27T00:08:27.726Z,41.27
2022-11-27T00:10:58.060Z,41.56
2022-11-27T00:13:30.060Z,41.59
2022-11-27T00:16:00.407Z,41.36
2022-11-27T00:18:31.107Z,41.22
2022-11-27T00:21:06.880Z,41.39
2022-11-27T00:23:38.767Z,41.50
2022-11-27T00:26:09.776Z,41.56
2022-11-27T00:28:42.083Z,41.42
2022-11-27T00:31:17.293Z,41.71
2022-11-27T00:33:48.620Z,41.53
2022-11-27T00:36:19.828Z,41.55
2022-11-27T00:38:50.452Z,41.60
2022-11-27T00:41:23.482Z,41.45
2022-11-27T00:43:56.372Z,41.29
2022-11-27T00:46:30.238Z,41.54
2022-11-27T00:49:01.907Z,41.66
2022-11-27T00:51:32.994Z,41.36
2022-11-27T00:54:03.810Z,41.47
2022-11-27T00:56:37.106Z,41.63
2022-11-27T00:59:10.160Z,41.55
2022-11-27T01:01:43.842Z,41.46
2022-11-27T01:04:17.828Z,41.52
2022-11-27T01:06:48.270Z,41.63
2022-11-27T01:09:19.462Z,41.62
2022-11-27T01:11:49.665Z,41.56
2022-11-27T01:14:22.178Z,41.67
2022-11-27T01:16:52.141Z,41.91
2022-11-27T01:19:22.686Z,41.90
2022-11-27T01:21:52.558Z,41.93
2022-11-27T01:24:22.999Z,41.83
2022-11-27T01:26:52.630Z,41.96
2022-11-27T01:29:24.626Z,41.55
2022-11-27T01:31:54.546Z,41.65
2022-11-27T01:34:25.237Z,42.11
2022-11-27T01:36:55.806Z,41.91
2022-11-27T01:39:26.736Z,41.94
2022-11-27T01:41:57.167Z,41.97
2022-11-27T01:44:54.456Z,41.62
2022-11-27T01:47:46.514Z,41.93
2022-11-27T01:50:23.546Z,41.92
2022-11-27T01:53:00.782Z,42.03
2022-11-27T01:55:38.509Z,41.97
2022-11-27T01:58:14.040Z,41.94
2022-11-27T02:00:46.273Z,42.23
2022-11-27T02:03:16.910Z,42.27
2022-11-27T02:05:46.930Z,42.27
2022-11-27T02:08:21.593Z,41.99
2022-11-27T02:10:55.945Z,42.07
2022-11-27T02:13:46.615Z,41.97
2022-11-27T02:16:30.286Z,42.07
2022-11-27T02:19:10.055Z,41.71
2022-11-27T02:21:59.867Z,41.88
2022-11-27T02:25:04.511Z,41.74
2022-11-27T02:28:00.737Z,41.76
2022-11-27T02:30:43.071Z,42.00
2022-11-27T02:33:19.813Z,42.24
2022-11-27T02:35:57.386Z,42.19
2022-11-27T02:38:33.437Z,42.38
2022-11-27T02:41:12.062Z,42.38
2022-11-27T02:43:48.017Z,42.27
2022-11-27T02:46:22.683Z,42.26
2022-11-27T02:48:58.326Z,42.14
2022-11-27T02:51:37.878Z,42.43
2022-11-27T02:54:12.745Z,42.23
2022-11-27T02:56:47.782Z,42.08
2022-11-27T02:59:20.907Z,41.89
2022-11-27T03:01:59.361Z,42.63
2022-11-27T03:04:36.626Z,42.33
2022-11-27T03:07:14.988Z,42.24
2022-11-27T03:09:51.020Z,42.27
2022-11-27T03:12:22.585Z,42.22
2022-11-27T03:14:52.747Z,42.66
2022-11-27T03:17:55.358Z,42.42
2022-11-27T03:20:30.889Z,42.40
2022-11-27T03:23:01.331Z,42.22
2022-11-27T03:25:32.205Z,42.42
2022-11-27T03:28:06.691Z,42.41
2022-11-27T03:30:36.844Z,42.51
2022-11-27T03:33:09.826Z,42.48
2022-11-27T03:35:40.889Z,42.42
2022-11-27T03:38:11.324Z,42.50
2022-11-27T03:40:53.829Z,42.35
2022-11-27T03:43:30.366Z,42.50
2022-11-27T03:46:09.042Z,42.56
2022-11-27T03:48:55.449Z,42.46
2022-11-27T03:51:38.549Z,42.66
2022-11-27T03:54:22.231Z,42.68
2022-11-27T03:57:04.842Z,42.55
2022-11-27T03:59:40.829Z,42.77
2022-11-27T04:02:18.376Z,42.46
2022-11-27T04:04:50.503Z,42.48
2022-11-27T04:07:21.179Z,42.41
2022-11-27T04:09:51.275Z,42.42
2022-11-27T04:12:21.905Z,42.69
2022-11-27T04:14:51.982Z,42.76
2022-11-27T04:17:22.453Z,42.46
2022-11-27T04:19:54.568Z,42.42
2022-11-27T04:22:25.384Z,42.63
2022-11-27T04:24:55.500Z,42.67
2022-11-27T04:27:29.696Z,42.85
2022-11-27T04:29:59.643Z,42.77
2022-11-27T04:32:30.124Z,42.64
2022-11-27T04:35:02.216Z,42.88
2022-11-27T04:37:33.037Z,42.36
2022-11-27T04:40:03.644Z,42.61
2022-11-27T04:42:33.952Z,42.55
2022-11-27T04:45:03.937Z,42.78
2022-11-27T04:47:34.493Z,42.42
2022-11-27T04:50:08.269Z,42.90
2022-11-27T04:52:38.313Z,42.74
2022-11-27T04:55:10.246Z,42.78
2022-11-27T04:57:40.098Z,42.96
2022-11-27T05:00:12.916Z,42.83
2022-11-27T05:02:43.534Z,42.68
2022-11-27T05:05:15.164Z,43.15
2022-11-27T05:07:45.712Z,43.27
2022-11-27T05:10:16.316Z,42.91
2022-11-27T05:12:46.868Z,42.98
2022-11-27T05:15:17.193Z,43.01
2022-11-27T05:17:47.649Z,42.95
2022-11-27T05:20:20.658Z,43.19
2022-11-27T05:22:50.640Z,42.90
2022-11-27T05:25:21.246Z,42.67
2022-11-27T05:27:51.742Z,43.00
2022-11-27T05:30:22.566Z,42.84
2022-11-27T05:32:52.881Z,43.04
2022-11-27T05:35:25.517Z,43.18
2022-11-27T05:37:56.137Z,42.97
2022-11-27T05:40:26.700Z,42.97
2022-11-27T05:42:56.866Z,43.06
2022-11-27T05:45:27.398Z,43.13
2022-11-27T05:47:57.834Z,42.85
2022-11-27T05:50:30.907Z,43.01
2022-11-27T05:53:01.044Z,43.04
2022-11-27T05:55:31.583Z,43.01
2022-11-27T05:58:02.043Z,43.26
2022-11-27T06:00:32.271Z,43.21
2022-11-27T06:03:03.113Z,43.46
2022-11-27T06:05:35.319Z,43.59
2022-11-27T06:08:05.875Z,43.96
2022-11-27T06:10:37.044Z,43.81
2022-11-27T06:13:07.637Z,43.84
2022-11-27T06:15:39.893Z,43.70
2022-11-27T06:18:10.835Z,43.64
2022-11-27T06:20:45.325Z,43.75
2022-11-27T06:23:17.452Z,43.37
2022-11-27T06:25:47.750Z,43.34
2022-11-27T06:28:18.297Z,43.46
2022-11-27T06:30:48.874Z,43.00
2022-11-27T06:33:19.375Z,42.58
2022-11-27T06:35:52.142Z,42.37
2022-11-27T06:38:22.139Z,42.40
2022-11-27T06:40:52.176Z,42.46
2022-11-27T06:43:22.638Z,42.35
2022-11-27T06:45:59.811Z,42.31
2022-11-27T06:48:30.659Z,42.26
2022-11-27T06:51:06.084Z,42.08
2022-11-27T06:53:39.200Z,41.42
2022-11-27T06:56:13.763Z,41.30
2022-11-27T06:58:44.404Z,41.64
2022-11-27T07:01:18.666Z,41.52
2022-11-27T07:03:49.176Z,41.40
2022-11-27T07:06:25.805Z,41.17
2022-11-27T07:08:56.852Z,41.18
2022-11-27T07:11:30.059Z,41.16
2022-11-27T07:14:03.042Z,41.35
2022-11-27T07:16:37.927Z,41.37
2022-11-27T07:19:09.853Z,41.23
2022-11-27T07:21:43.273Z,41.34
2022-11-27T07:24:13.961Z,41.31
2022-11-27T07:26:44.254Z,41.24
2022-11-27T07:29:14.907Z,41.25
2022-11-27T07:31:45.436Z,41.16
2022-11-27T07:34:21.408Z,41.03
2022-11-27T07:36:54.120Z,41.26
2022-11-27T07:39:46.287Z,41.12
2022-11-27T07:42:43.972Z,40.78
2022-11-27T07:45:04.643Z,41.05
2022-11-27T07:47:34.786Z,41.25
2022-11-27T07:50:04.718Z,41.24
2022-11-27T07:52:42.038Z,41.53
2022-11-27T07:55:13.159Z,41.12
2022-11-27T07:57:44.343Z,40.96
2022-11-27T08:00:16.089Z,40.94
2022-11-27T08:02:46.980Z,41.46
2022-11-27T08:05:17.227Z,41.34
2022-11-27T08:07:49.826Z,41.60
2022-11-27T08:10:20.685Z,41.95
2022-11-27T08:12:50.666Z,41.99
2022-11-27T08:15:21.476Z,42.10
2022-11-27T08:17:51.514Z,42.47
2022-11-27T08:20:22.414Z,42.87
2022-11-27T08:22:59.543Z,43.03
2022-11-27T08:25:33.174Z,42.70
2022-11-27T08:28:03.332Z,42.84
2022-11-27T08:30:34.122Z,42.38
2022-11-27T08:33:04.628Z,41.46
2022-11-27T08:35:35.411Z,40.51
2022-11-27T08:38:08.012Z,39.58
2022-11-27T08:40:38.613Z,39.09
2022-11-27T08:43:08.614Z,38.11
2022-11-27T08:45:42.192Z,37.54
2022-11-27T08:48:12.551Z,37.97
2022-11-27T08:50:42.550Z,37.20
2022-11-27T08:53:15.794Z,36.70
2022-11-27T08:55:47.380Z,37.02
2022-11-27T08:58:18.007Z,36.46
2022-11-27T09:00:48.422Z,36.64
2022-11-27T09:03:19.094Z,36.11
2022-11-27T09:05:49.860Z,36.49
2022-11-27T09:08:21.816Z,35.79
2022-11-27T09:10:51.919Z,35.67
2022-11-27T09:13:22.593Z,35.75
2022-11-27T09:15:53.236Z,35.94
2022-11-27T09:18:23.830Z,36.11
2022-11-27T09:21:00.573Z,35.64
2022-11-27T09:23:33.453Z,35.31
2022-11-27T09:26:08.767Z,35.93
2022-11-27T09:28:41.329Z,35.73
2022-11-27T09:31:15.347Z,35.63
2022-11-27T09:33:45.803Z,35.22
2022-11-27T09:36:20.976Z,35.15
2022-11-27T09:38:53.238Z,34.74
2022-11-27T09:41:41.804Z,35.26
2022-11-27T09:44:37.068Z,35.20
2022-11-27T09:47:20.282Z,35.44
2022-11-27T09:49:56.653Z,34.74
2022-11-27T09:52:43.587Z,35.08
2022-11-27T09:55:23.774Z,34.62
2022-11-27T09:58:04.529Z,34.72
2022-11-27T10:00:35.458Z,34.68
2022-11-27T10:03:06.277Z,34.64
2022-11-27T10:05:48.319Z,34.74
2022-11-27T10:08:34.290Z,34.56
2022-11-27T10:11:21.018Z,34.45
2022-11-27T10:14:29.194Z,34.50
2022-11-27T10:17:07.967Z,35.02
2022-11-27T10:19:50.030Z,34.70
2022-11-27T10:22:30.870Z,34.59
2022-11-27T10:25:19.563Z,34.35
2022-11-27T10:28:08.519Z,34.59
2022-11-27T10:30:51.118Z,34.38
2022-11-27T10:33:29.898Z,34.65
2022-11-27T10:36:03.875Z,34.48
2022-11-27T10:38:42.487Z,34.16
2022-11-27T10:41:48.723Z,34.47
2022-11-27T10:44:30.267Z,34.26
2022-11-27T10:47:14.806Z,34.51
2022-11-27T10:49:46.799Z,34.43
2022-11-27T10:52:19.412Z,34.50
2022-11-27T10:54:58.123Z,34.52
2022-11-27T10:57:54.082Z,34.54
2022-11-27T11:00:41.337Z,34.71
2022-11-27T11:03:21.625Z,34.47
2022-11-27T11:06:19.811Z,34.53
2022-11-27T11:08:51.525Z,34.46
2022-11-27T11:11:30.052Z,34.57
2022-11-27T11:14:00.451Z,34.58
2022-11-27T11:16:35.687Z,34.86
2022-11-27T11:19:08.984Z,34.71
2022-11-27T11:21:45.527Z,34.35
2022-11-27T11:24:27.654Z,34.80
2022-11-27T11:27:00.846Z,34.45
2022-11-27T11:29:38.266Z,34.63
2022-11-27T11:32:18.997Z,34.66
2022-11-27T11:34:59.184Z,34.57
2022-11-27T11:37:34.903Z,34.71
2022-11-27T11:40:14.802Z,34.63
2022-11-27T11:42:58.657Z,34.61
2022-11-27T11:45:32.824Z,34.67
2022-11-27T11:48:22.378Z,34.72
2022-11-27T11:50:58.184Z,34.63
2022-11-27T11:53:38.674Z,34.93
2022-11-27T11:56:30.668Z,34.76
2022-11-27T11:59:04.088Z,34.62
2022-11-27T12:02:18.484Z,34.84
2022-11-27T12:05:17.469Z,34.83
2022-11-27T12:08:09.207Z,34.75
2022-11-27T12:10:53.343Z,34.85
2022-11-27T12:13:45.226Z,34.83
2022-11-27T12:16:29.335Z,35.36
2022-11-27T12:19:46.636Z,34.96
2022-11-27T12:22:38.555Z,34.88
2022-11-27T12:25:28.007Z,35.11
2022-11-27T12:28:20.796Z,34.62
2022-11-27T12:31:07.169Z,35.12
2022-11-27T12:34:04.615Z,35.29
2022-11-27T12:37:01.884Z,35.10
2022-11-27T12:39:51.939Z,35.27
2022-11-27T12:42:28.258Z,35.21
2022-11-27T12:45:05.983Z,35.11
2022-11-27T12:47:44.684Z,35.30
2022-11-27T12:50:28.569Z,35.08
2022-11-27T12:53:11.981Z,35.03
2022-11-27T12:55:51.676Z,35.25
2022-11-27T12:58:29.489Z,35.33
2022-11-27T13:01:09.475Z,35.19
2022-11-27T13:03:52.378Z,35.27
2022-11-27T13:06:29.765Z,35.41
2022-11-27T13:09:09.476Z,35.43
2022-11-27T13:11:43.964Z,35.41
2022-11-27T13:14:19.944Z,35.46
2022-11-27T13:16:56.916Z,35.40
2022-11-27T13:19:34.567Z,35.42
2022-11-27T13:22:09.605Z,35.19
2022-11-27T13:24:41.190Z,35.47
2022-11-27T13:27:19.042Z,35.32
2022-11-27T13:29:55.676Z,35.28
2022-11-27T13:32:30.940Z,35.30
2022-11-27T13:35:07.709Z,35.55
2022-11-27T13:37:42.537Z,35.38
2022-11-27T13:40:26.516Z,35.33
2022-11-27T13:43:03.311Z,35.52
2022-11-27T13:45:39.009Z,35.47
2022-11-27T13:48:33.316Z,35.72
2022-11-27T13:51:05.423Z,35.40
2022-11-27T13:53:39.517Z,35.40
2022-11-27T13:56:11.227Z,35.50
2022-11-27T13:58:45.799Z,35.44
2022-11-27T14:01:20.336Z,35.49
2022-11-27T14:03:51.916Z,35.50
2022-11-27T14:06:28.233Z,35.61
2022-11-27T14:09:02.654Z,35.68
2022-11-27T14:11:42.204Z,35.53
2022-11-27T14:14:30.788Z,35.69
2022-11-27T14:17:05.240Z,35.64
2022-11-27T14:19:42.068Z,35.69
2022-11-27T14:22:19.451Z,35.63
2022-11-27T14:24:57.270Z,35.79
2022-11-27T14:27:34.679Z,35.65
2022-11-27T14:30:44.918Z,35.97
2022-11-27T14:33:22.124Z,35.82
2022-11-27T14:35:54.723Z,36.00
2022-11-27T14:38:26.049Z,35.66
2022-11-27T14:41:10.040Z,35.79
2022-11-27T14:43:40.792Z,35.77
2022-11-27T14:46:20.628Z,35.84
2022-11-27T14:48:57.284Z,35.84
2022-11-27T14:51:31.219Z,35.58
2022-11-27T14:54:05.551Z,35.54
2022-11-27T14:56:40.236Z,35.69
2022-11-27T14:59:18.367Z,35.67
2022-11-27T15:02:04.163Z,35.56
2022-11-27T15:04:39.160Z,35.68
2022-11-27T15:07:17.700Z,35.63
2022-11-27T15:09:52.409Z,35.65
2022-11-27T15:12:29.420Z,35.51
2022-11-27T15:15:06.705Z,35.56
2022-11-27T15:17:43.016Z,35.59
2022-11-27T15:20:19.524Z,35.71
2022-11-27T15:22:56.471Z,35.65
2022-11-27T15:25:40.102Z,35.67
2022-11-27T15:28:36.687Z,35.76
2022-11-27T15:31:26.864Z,35.66
2022-11-27T15:34:08.226Z,35.99
2022-11-27T15:36:43.833Z,35.74
2022-11-27T15:39:26.614Z,35.95
2022-11-27T15:41:59.959Z,35.72
2022-11-27T15:44:33.007Z,35.67
2022-11-27T15:47:07.274Z,35.94
2022-11-27T15:49:39.290Z,35.83
2022-11-27T15:52:09.278Z,35.82
2022-11-27T15:54:39.592Z,35.81
2022-11-27T15:57:10.190Z,35.80
2022-11-27T15:59:40.776Z,35.94
2022-11-27T16:02:18.086Z,35.76
2022-11-27T16:04:50.891Z,35.83
2022-11-27T16:07:21.603Z,35.88
2022-11-27T16:09:52.236Z,35.77
2022-11-27T16:12:22.394Z,35.85
2022-11-27T16:14:53.773Z,35.91
2022-11-27T16:17:24.398Z,35.76
2022-11-27T16:19:57.046Z,35.80
2022-11-27T16:22:26.767Z,35.82
2022-11-27T16:24:56.857Z,35.94
2022-11-27T16:27:27.613Z,35.85
2022-11-27T16:29:58.087Z,35.89
2022-11-27T16:32:28.701Z,35.69
2022-11-27T16:35:00.836Z,35.79
2022-11-27T16:37:32.792Z,35.73
2022-11-27T16:40:04.011Z,35.78
2022-11-27T16:42:36.519Z,35.92
2022-11-27T16:45:07.900Z,35.82
2022-11-27T16:47:38.490Z,35.83
2022-11-27T16:50:12.522Z,35.88
2022-11-27T16:52:42.709Z,35.71
2022-11-27T16:55:13.723Z,35.87
2022-11-27T16:57:44.012Z,36.05
2022-11-27T17:00:18.318Z,36.04
2022-11-27T17:02:50.539Z,35.98
2022-11-27T17:05:23.853Z,35.99
2022-11-27T17:07:53.920Z,36.04
2022-11-27T17:10:24.844Z,36.14
2022-11-27T17:12:55.400Z,35.93
2022-11-27T17:15:26.115Z,36.21
2022-11-27T17:17:58.862Z,36.00
2022-11-27T17:20:34.392Z,35.96
2022-11-27T17:23:05.426Z,36.07
2022-11-27T17:25:35.478Z,35.99
2022-11-27T17:28:05.866Z,36.06
2022-11-27T17:30:39.387Z,36.01
2022-11-27T17:33:09.673Z,36.22
2022-11-27T17:35:42.179Z,36.02
2022-11-27T17:38:14.168Z,36.14
2022-11-27T17:40:44.743Z,36.30
2022-11-27T17:43:15.464Z,36.28
2022-11-27T17:45:55.578Z,36.23
2022-11-27T17:48:27.098Z,36.25
2022-11-27T17:50:59.578Z,36.15
2022-11-27T17:53:30.099Z,36.24
2022-11-27T17:56:05.958Z,36.13
2022-11-27T17:58:36.928Z,36.30
2022-11-27T18:01:09.652Z,36.23
2022-11-27T18:03:41.407Z,36.10
2022-11-27T18:06:13.467Z,36.10
2022-11-27T18:08:45.260Z,36.14
2022-11-27T18:11:18.998Z,35.92
2022-11-27T18:13:50.583Z,36.20
2022-11-27T18:16:24.859Z,36.35
2022-11-27T18:18:55.626Z,36.35
2022-11-27T18:21:30.831Z,36.34
2022-11-27T18:27:07.763Z,36.32
2022-11-27T18:29:40.086Z,36.35
2022-11-27T18:32:11.930Z,36.27
2022-11-27T18:34:43.735Z,36.43
2022-11-27T18:37:15.952Z,36.37
2022-11-27T18:39:47.508Z,36.54
2022-11-27T18:42:19.476Z,36.50
2022-11-27T18:44:50.613Z,36.42
2022-11-27T18:47:21.436Z,36.45
2022-11-27T18:49:51.555Z,36.37
2022-11-27T18:52:24.251Z,36.55
2022-11-27T18:54:54.503Z,36.38
2022-11-27T18:57:25.681Z,36.36
2022-11-27T18:59:55.684Z,36.46
2022-11-27T19:02:26.460Z,36.50
2022-11-27T19:04:56.647Z,36.63
2022-11-27T19:07:29.251Z,36.75
2022-11-27T19:09:59.923Z,36.52
2022-11-27T19:12:30.636Z,36.81
2022-11-27T19:15:01.232Z,36.45
2022-11-27T19:17:32.534Z,36.64
2022-11-27T19:20:02.918Z,36.84
2022-11-27T19:22:35.656Z,36.78
2022-11-27T19:25:06.639Z,36.68
2022-11-27T19:27:37.523Z,36.60
2022-11-27T19:30:09.829Z,36.77
2022-11-27T19:32:39.714Z,36.81
2022-11-27T19:35:11.159Z,36.74
2022-11-27T19:37:43.454Z,36.75
2022-11-27T19:40:17.651Z,37.07
2022-11-27T19:42:48.314Z,36.61
2022-11-27T19:45:19.372Z,36.77
2022-11-27T19:47:50.393Z,36.71
2022-11-27T19:50:21.938Z,36.81
2022-11-27T19:52:53.963Z,36.81
2022-11-27T19:55:24.395Z,37.02
2022-11-27T19:57:54.503Z,36.56
2022-11-27T20:00:25.852Z,36.72
2022-11-27T20:02:56.318Z,36.77
2022-11-27T20:05:26.864Z,37.02
2022-11-27T20:08:00.371Z,36.65
2022-11-27T20:10:33.976Z,36.85
2022-11-27T20:13:05.614Z,36.89
2022-11-27T20:15:36.378Z,36.74
2022-11-27T20:18:07.606Z,36.89
2022-11-27T20:20:38.231Z,36.99
2022-11-27T20:23:10.309Z,36.91
2022-11-27T20:25:43.697Z,37.10
2022-11-27T20:28:13.847Z,37.23
2022-11-27T20:30:45.033Z,37.00
2022-11-27T20:33:18.200Z,36.98
2022-11-27T20:35:48.935Z,37.06
2022-11-27T20:38:21.487Z,36.70
2022-11-27T20:41:01.368Z,36.82
2022-11-27T20:43:32.057Z,36.74
2022-11-27T20:46:02.186Z,37.16
2022-11-27T20:48:32.975Z,37.16
2022-11-27T20:51:09.043Z,37.09
2022-11-27T20:53:41.545Z,36.92
2022-11-27T20:56:15.732Z,37.05
2022-11-27T20:58:47.928Z,37.01
2022-11-27T21:01:21.392Z,37.05
2022-11-27T21:03:54.232Z,36.98
2022-11-27T21:06:32.033Z,37.01
2022-11-27T21:09:07.718Z,37.07
2022-11-27T21:11:39.500Z,37.19
2022-11-27T21:14:12.995Z,37.05
2022-11-27T21:16:47.225Z,37.10
2022-11-27T21:19:20.104Z,37.21
2022-11-27T21:21:51.294Z,37.12
2022-11-27T21:24:28.900Z,37.35
2022-11-27T21:26:59.211Z,37.12
2022-11-27T21:29:29.590Z,37.04
2022-11-27T21:32:00.167Z,37.20
2022-11-27T21:34:31.139Z,37.52
2022-11-27T21:37:01.878Z,37.33
2022-11-27T21:39:33.968Z,37.48
2022-11-27T21:42:04.498Z,37.35
2022-11-27T21:44:34.579Z,37.27
2022-11-27T21:47:06.470Z,37.31
2022-11-27T21:49:37.237Z,37.35
2022-11-27T21:52:08.560Z,37.42
2022-11-27T21:54:40.863Z,37.30
2022-11-27T21:57:11.504Z,37.24
2022-11-27T21:59:45.025Z,37.46
2022-11-27T22:02:24.221Z,37.36
2022-11-27T22:04:54.689Z,37.45
2022-11-27T22:07:25.217Z,37.18
2022-11-27T22:09:57.269Z,37.38
2022-11-27T22:12:27.744Z,37.51
2022-11-27T22:14:58.885Z,37.42
2022-11-27T22:17:29.029Z,37.37
2022-11-27T22:20:00.134Z,37.49
2022-11-27T22:22:31.858Z,37.52
2022-11-27T22:25:05.354Z,37.23
2022-11-27T22:27:35.435Z,37.50
2022-11-27T22:30:06.381Z,37.73
2022-11-27T22:32:36.084Z,37.72
2022-11-27T22:35:07.301Z,37.38
2022-11-27T22:37:37.993Z,37.48
2022-11-27T22:40:11.937Z,37.79
2022-11-27T22:42:42.955Z,37.81
2022-11-27T22:45:13.879Z,37.70
2022-11-27T22:47:44.485Z,37.67
2022-11-27T22:50:15.098Z,37.30
2022-11-27T22:52:45.260Z,37.51
2022-11-27T22:55:18.018Z,37.55
2022-11-27T22:57:48.166Z,37.47
2022-11-27T23:00:19.200Z,37.50
2022-11-27T23:02:50.509Z,37.61
2022-11-27T23:05:21.070Z,37.46
2022-11-27T23:07:51.549Z,37.68
2022-11-27T23:10:23.572Z,37.54
2022-11-27T23:12:53.884Z,37.60
2022-11-27T23:15:24.412Z,37.34
2022-11-27T23:17:55.079Z,37.87
2022-11-27T23:20:25.878Z,37.59
2022-11-27T23:22:57.449Z,37.80
2022-11-27T23:25:32.752Z,37.79
2022-11-27T23:28:02.987Z,37.95
2022-11-27T23:30:34.177Z,37.88
2022-11-27T23:33:04.952Z,37.66
2022-11-27T23:35:35.006Z,37.62
2022-11-27T23:38:05.950Z,37.72
2022-11-27T23:40:37.873Z,37.74
2022-11-27T23:43:08.147Z,37.75
2022-11-27T23:45:40.974Z,38.00
2022-11-27T23:48:11.845Z,37.83
2022-11-27T23:50:43.368Z,37.78
2022-11-27T23:53:13.626Z,38.28
2022-11-27T23:55:46.604Z,37.72
2022-11-27T23:58:17.182Z,37.77
